Bookmark and Share
Track history (hours):
 

Geervliet

Last reported at 2014-Apr-15 14:32 UTC. Time now 2014-Apr-17 00:51 UTC.
Position N 41°30' E 029°12'.

Length 86 m; draft 3.5 m.

Type: Cargo ship. MMSI: 246803000.

NotesDate/timePositionNaut miles runAvg speedWind from/ knotsBaromVisibWave heightAir tempDewpointWater temp
2014-Apr-15 14:32N 41°30' E 029°12'11 5.5
2014-Apr-15 12:34N 41°19' E 029°12'  
2014-Apr-11 23:29N 37°53' E 024°32'3010.0
2014-Apr-11 20:29N 37°30' E 024°07'1010.2
2014-Apr-11 19:33N 37°22' E 024°01'418 8.9
2014-Apr-09 20:28N 36°29' E 015°22'9 9.3
2014-Apr-09 19:32N 36°29' E 015°11'27 9.1
2014-Apr-09 16:33N 36°29' E 014°37'10 9.7
2014-Apr-09 15:33N 36°32' E 014°26'10 9.6
2014-Apr-09 14:33N 36°35' E 014°14'9 9.4
2014-Apr-09 13:33N 36°38' E 014°03'11 9.5
2014-Apr-09 12:24N 36°42' E 013°50'8 9.7
2014-Apr-09 11:33N 36°44' E 013°40'10 9.7
2014-Apr-09 10:33N 36°46' E 013°29'10 9.6
2014-Apr-09 09:33N 36°49' E 013°17'10 9.4
2014-Apr-09 08:32N 36°52' E 013°06'11 9.3
2014-Apr-09 07:24N 36°56' E 012°53'58 9.4
2014-Apr-09 01:15N 37°13' E 011°44'6 9.0
2014-Apr-09 00:33N 37°15' E 011°36'9 9.1
2014-Apr-08 23:33N 37°18' E 011°25'9 9.3
2014-Apr-08 22:33N 37°20' E 011°14'9 9.1
2014-Apr-08 21:33N 37°23' E 011°03'9 9.5
2014-Apr-08 20:33N 37°25' E 010°52'28 9.3
2014-Apr-08 17:33N 37°33' E 010°18'1010.1
2014-Apr-08 16:33N 37°33' E 010°05'1010.0
2014-Apr-08 15:33N 37°32' E 009°53'10 9.8
2014-Apr-08 14:33N 37°29' E 009°41'1010.0
2014-Apr-08 13:32N 37°27' E 009°28'1311.3
2014-Apr-08 12:25N 37°24' E 009°13'1011.0
2014-Apr-08 11:33N 37°22' E 009°01'  
2014-Apr-05 23:33N 35°57' W 005°01'1212.2
2014-Apr-05 22:33N 35°55' W 005°16'3 2.8
2014-Apr-05 21:31N 35°54' W 005°19'0 0.0
2014-Apr-05 20:31N 35°54' W 005°19'0 0.0
2014-Apr-05 19:31N 35°54' W 005°19'0 0.0
2014-Apr-05 18:31N 35°54' W 005°19'0 0.0
2014-Apr-05 17:31N 35°54' W 005°19'0 0.0
2014-Apr-05 16:31N 35°54' W 005°19'0 0.0
2014-Apr-05 15:31N 35°54' W 005°19'  

Dump ship's entire track history

sailing weather and tide predictions

Geervliet — PCLI — position and weather